createdAt,value
2023-01-10T00:02:09.247Z,100276.00
2023-01-10T00:04:36.794Z,100272.41
2023-01-10T00:07:04.412Z,100280.41
2023-01-10T00:09:31.766Z,100294.25
2023-01-10T00:12:17.489Z,100302.47
2023-01-10T00:14:45.088Z,100305.16
2023-01-10T00:17:12.437Z,100301.50
2023-01-10T00:19:39.936Z,100300.94
2023-01-10T00:22:09.183Z,100296.19
2023-01-10T00:24:43.778Z,100299.81
2023-01-10T00:27:12.915Z,100307.69
2023-01-10T00:29:41.501Z,100303.47
2023-01-10T00:32:09.102Z,100308.75
2023-01-10T00:34:40.276Z,100305.31
2023-01-10T00:37:07.956Z,100309.66
2023-01-10T00:39:35.536Z,100304.72
2023-01-10T00:42:21.986Z,100307.31
2023-01-10T00:44:58.568Z,100298.88
2023-01-10T00:47:26.254Z,100305.41
2023-01-10T00:49:53.739Z,100306.72
2023-01-10T00:52:21.790Z,100300.13
2023-01-10T00:55:01.298Z,100309.63
2023-01-10T00:57:29.850Z,100315.22
2023-01-10T01:00:21.834Z,100315.41
2023-01-10T01:03:03.906Z,100317.03
2023-01-10T01:05:34.158Z,100309.75
2023-01-10T01:08:02.425Z,100314.44
2023-01-10T01:10:30.575Z,100317.94
2023-01-10T01:13:00.406Z,100319.78
2023-01-10T01:15:36.957Z,100317.81
2023-01-10T01:18:09.015Z,100325.59
2023-01-10T01:20:38.893Z,100329.25
2023-01-10T01:23:09.937Z,100331.13
2023-01-10T01:25:43.330Z,100337.59
2023-01-10T01:28:14.347Z,100334.91
2023-01-10T01:30:51.005Z,100340.75
2023-01-10T01:33:18.963Z,100336.69
2023-01-10T01:35:50.123Z,100341.34
2023-01-10T01:38:18.294Z,100343.94
2023-01-10T01:40:50.082Z,100351.19
2023-01-10T01:43:41.900Z,100351.06
2023-01-10T01:46:09.574Z,100356.25
2023-01-10T01:48:47.995Z,100352.53
2023-01-10T01:51:28.050Z,100353.91
2023-01-10T01:54:00.742Z,100358.59
2023-01-10T01:56:35.095Z,100363.06
2023-01-10T01:59:07.014Z,100369.53
2023-01-10T02:01:35.876Z,100361.13
2023-01-10T02:04:13.432Z,100362.31
2023-01-10T02:06:48.893Z,100368.50
2023-01-10T02:09:21.566Z,100367.16
2023-01-10T02:11:49.085Z,100358.88
2023-01-10T02:14:17.728Z,100365.28
2023-01-10T02:16:52.633Z,100366.13
2023-01-10T02:20:16.315Z,100353.63
2023-01-10T02:22:56.183Z,100354.88
2023-01-10T02:25:38.901Z,100366.19
2023-01-10T02:28:21.339Z,100355.38
2023-01-10T02:31:09.103Z,100357.13
2023-01-10T02:33:40.211Z,100357.75
2023-01-10T02:36:21.072Z,100363.50
2023-01-10T02:38:58.418Z,100375.03
2023-01-10T02:41:44.487Z,100368.41
2023-01-10T02:44:20.027Z,100367.66
2023-01-10T02:46:48.659Z,100361.06
2023-01-10T02:49:16.665Z,100369.75
2023-01-10T02:51:44.059Z,100372.78
2023-01-10T02:54:14.357Z,100372.09
2023-01-10T02:57:00.807Z,100369.00
2023-01-10T03:02:33.916Z,100378.69
2023-01-10T03:05:40.441Z,100385.25
2023-01-10T03:08:11.408Z,100398.88
2023-01-10T03:10:51.424Z,100407.56
2023-01-10T03:13:18.897Z,100398.53
2023-01-10T03:15:48.605Z,100401.84
2023-01-10T03:18:20.821Z,100411.50
2023-01-10T03:20:49.709Z,100417.84
2023-01-10T03:23:19.036Z,100405.09
2023-01-10T03:25:48.167Z,100406.00
2023-01-10T03:28:26.393Z,100415.28
2023-01-10T03:31:14.918Z,100420.41
2023-01-10T03:33:45.195Z,100428.72
2023-01-10T03:36:26.961Z,100423.31
2023-01-10T03:38:57.262Z,100419.41
2023-01-10T03:41:39.842Z,100428.53
2023-01-10T03:44:41.587Z,100433.09
2023-01-10T03:47:17.847Z,100437.16
2023-01-10T03:49:48.304Z,100444.88
2023-01-10T03:52:17.197Z,100442.84
2023-01-10T03:54:45.341Z,100444.53
2023-01-10T03:57:19.671Z,100449.53
2023-01-10T03:59:48.149Z,100449.81
2023-01-10T04:02:15.908Z,100446.38
2023-01-10T04:04:43.453Z,100463.00
2023-01-10T04:07:11.099Z,100464.34
2023-01-10T04:09:39.088Z,100466.81
2023-01-10T04:12:08.902Z,100473.69
2023-01-10T04:17:41.577Z,100474.78
2023-01-10T04:20:10.083Z,100476.13
2023-01-10T04:22:37.643Z,100480.16
2023-01-10T04:25:05.524Z,100489.00
2023-01-10T04:27:33.156Z,100485.63
2023-01-10T04:30:01.015Z,100492.63
2023-01-10T04:32:29.047Z,100485.69
2023-01-10T04:34:56.523Z,100489.13
2023-01-10T04:37:23.944Z,100494.91
2023-01-10T04:39:51.525Z,100486.88
2023-01-10T04:42:19.897Z,100483.94
2023-01-10T04:44:47.870Z,100494.13
2023-01-10T04:47:15.786Z,100497.50
2023-01-10T04:49:43.276Z,100512.56
2023-01-10T04:52:11.794Z,100513.16
2023-01-10T04:54:39.351Z,100519.38
2023-01-10T04:57:06.853Z,100519.13
2023-01-10T04:59:34.338Z,100527.41
2023-01-10T05:02:01.922Z,100530.44
2023-01-10T05:04:29.472Z,100531.09
2023-01-10T05:06:56.931Z,100529.09
2023-01-10T05:09:24.940Z,100528.88
2023-01-10T05:11:52.422Z,100538.84
2023-01-10T05:14:19.887Z,100538.63
2023-01-10T05:16:47.441Z,100544.56
2023-01-10T05:19:15.067Z,100545.59
2023-01-10T05:21:42.640Z,100544.56
2023-01-10T05:24:10.024Z,100546.06
2023-01-10T05:26:37.465Z,100547.66
2023-01-10T05:29:05.180Z,100555.78
2023-01-10T05:31:33.082Z,100552.72
2023-01-10T05:34:00.879Z,100556.94
2023-01-10T05:36:28.395Z,100564.25
2023-01-10T05:38:56.158Z,100567.06
2023-01-10T05:41:24.135Z,100572.13
2023-01-10T05:43:52.547Z,100583.44
2023-01-10T05:46:20.014Z,100580.84
2023-01-10T05:48:47.475Z,100577.31
2023-01-10T05:51:14.910Z,100584.06
2023-01-10T05:53:43.535Z,100589.53
2023-01-10T05:56:11.057Z,100587.44
2023-01-10T05:58:38.948Z,100593.97
2023-01-10T06:01:06.850Z,100594.75
2023-01-10T06:03:34.392Z,100598.25
2023-01-10T06:06:03.621Z,100596.31
2023-01-10T06:08:31.037Z,100594.13
2023-01-10T06:10:58.556Z,100605.88
2023-01-10T06:13:26.159Z,100622.56
2023-01-10T06:15:54.083Z,100632.28
2023-01-10T06:18:21.570Z,100638.03
2023-01-10T06:20:48.937Z,100637.97
2023-01-10T06:23:16.856Z,100650.69
2023-01-10T06:25:44.432Z,100656.03
2023-01-10T06:28:15.288Z,100665.84
2023-01-10T06:30:43.638Z,100669.63
2023-01-10T06:33:11.967Z,100672.28
2023-01-10T06:35:39.653Z,100681.00
2023-01-10T06:38:07.263Z,100686.59
2023-01-10T06:40:34.867Z,100696.28
2023-01-10T06:43:02.352Z,100697.25
2023-01-10T06:45:30.496Z,100706.81
2023-01-10T06:47:58.122Z,100712.44
2023-01-10T06:50:26.391Z,100728.16
2023-01-10T06:52:58.327Z,100728.31
2023-01-10T06:55:26.247Z,100729.09
2023-01-10T06:58:00.988Z,100736.94
2023-01-10T07:00:29.645Z,100741.22
2023-01-10T07:03:02.837Z,100748.41
2023-01-10T07:05:30.970Z,100752.91
2023-01-10T07:08:01.343Z,100747.19
2023-01-10T07:10:29.076Z,100757.56
2023-01-10T07:13:08.340Z,100761.88
2023-01-10T07:15:36.724Z,100766.94
2023-01-10T07:18:07.164Z,100777.00
2023-01-10T07:20:35.029Z,100763.91
2023-01-10T07:23:03.059Z,100781.44
2023-01-10T07:25:30.728Z,100775.22
2023-01-10T07:27:58.743Z,100784.16
2023-01-10T07:30:26.311Z,100788.06
2023-01-10T07:32:58.686Z,100799.63
2023-01-10T07:35:26.263Z,100806.19
2023-01-10T07:37:53.853Z,100818.22
2023-01-10T07:40:21.525Z,100825.06
2023-01-10T07:42:52.393Z,100824.81
2023-01-10T07:45:20.446Z,100832.88
2023-01-10T07:47:47.944Z,100829.50
2023-01-10T07:50:17.906Z,100831.56
2023-01-10T07:52:46.044Z,100839.31
2023-01-10T07:55:13.577Z,100843.81
2023-01-10T07:57:41.939Z,100854.09
2023-01-10T08:00:11.477Z,100868.09
2023-01-10T08:02:39.087Z,100876.25
2023-01-10T08:05:06.852Z,100878.44
2023-01-10T08:07:34.768Z,100885.09
2023-01-10T08:10:02.610Z,100894.91
2023-01-10T08:12:30.256Z,100892.06
2023-01-10T08:14:58.418Z,100899.00
2023-01-10T08:17:37.663Z,100920.41
2023-01-10T08:20:05.751Z,100925.53
2023-01-10T08:22:33.350Z,100932.44
2023-01-10T08:25:00.873Z,100935.59
2023-01-10T08:27:28.990Z,100940.38
2023-01-10T08:29:56.788Z,100940.75
2023-01-10T08:32:24.289Z,100943.50
2023-01-10T08:34:51.678Z,100946.03
2023-01-10T08:37:19.263Z,100947.03
2023-01-10T08:39:46.860Z,100954.97
2023-01-10T08:42:16.591Z,100963.31
2023-01-10T08:44:45.129Z,100946.16
2023-01-10T08:47:13.581Z,100951.66
2023-01-10T08:49:41.019Z,100956.19
2023-01-10T08:52:08.870Z,100957.78
2023-01-10T08:54:36.660Z,100956.06
2023-01-10T08:57:04.129Z,100956.34
2023-01-10T08:59:32.026Z,100968.34
2023-01-10T09:02:00.121Z,100978.69
2023-01-10T09:04:29.308Z,100989.19
2023-01-10T09:06:57.884Z,100997.50
2023-01-10T09:09:25.558Z,101003.09
2023-01-10T09:11:53.181Z,101007.38
2023-01-10T09:14:20.705Z,101005.78
2023-01-10T09:16:51.778Z,101010.16
2023-01-10T09:19:22.241Z,101006.97
2023-01-10T09:21:50.023Z,101007.69
2023-01-10T09:24:17.707Z,101009.97
2023-01-10T09:26:45.691Z,101009.13
2023-01-10T09:29:13.283Z,101011.88
2023-01-10T09:31:41.601Z,101020.69
2023-01-10T09:34:09.208Z,101022.28
2023-01-10T09:36:37.236Z,101021.44
2023-01-10T09:39:04.689Z,101035.69
2023-01-10T09:41:56.324Z,101041.44
2023-01-10T09:44:35.887Z,101059.41
2023-01-10T09:47:33.355Z,101066.03
2023-01-10T09:50:11.144Z,101074.81
2023-01-10T09:52:42.428Z,101077.53
2023-01-10T09:55:41.985Z,101088.81
2023-01-10T09:58:16.014Z,101095.28
2023-01-10T10:00:46.697Z,101086.53
2023-01-10T10:03:32.893Z,101085.69
2023-01-10T10:06:11.537Z,101086.69
2023-01-10T10:08:40.710Z,101085.84
2023-01-10T10:11:26.228Z,101086.22
2023-01-10T10:14:00.750Z,101088.72
2023-01-10T10:16:48.439Z,101094.03
2023-01-10T10:19:40.798Z,101097.13
2023-01-10T10:22:11.913Z,101104.09
2023-01-10T10:24:47.897Z,101105.06
2023-01-10T10:27:18.035Z,101106.31
2023-01-10T10:29:45.536Z,101101.94
2023-01-10T10:32:15.629Z,101105.16
2023-01-10T10:34:43.021Z,101105.06
2023-01-10T10:37:33.654Z,101110.78
2023-01-10T10:40:06.440Z,101120.72
2023-01-10T10:42:35.925Z,101119.19
2023-01-10T10:45:14.952Z,101110.91
2023-01-10T10:47:50.175Z,101104.78
2023-01-10T10:50:20.048Z,101116.81
2023-01-10T10:52:48.157Z,101116.09
2023-01-10T10:55:16.732Z,101114.88
2023-01-10T10:57:55.590Z,101113.13
2023-01-10T11:00:28.940Z,101110.69
2023-01-10T11:03:15.018Z,101103.69
2023-01-10T11:05:44.810Z,101109.13
2023-01-10T11:08:15.211Z,101101.25
2023-01-10T11:10:44.390Z,101100.28
2023-01-10T11:13:12.000Z,101093.97
2023-01-10T11:15:46.606Z,101090.41
2023-01-10T11:18:18.686Z,101094.59
2023-01-10T11:21:06.391Z,101108.56
2023-01-10T11:23:38.333Z,101110.94
2023-01-10T11:26:07.727Z,101127.44
2023-01-10T11:28:36.042Z,101124.25
2023-01-10T11:31:03.938Z,101125.91
2023-01-10T11:33:35.620Z,101123.00
2023-01-10T11:36:08.419Z,101110.53
2023-01-10T11:38:36.160Z,101109.38
2023-01-10T11:41:19.220Z,101105.09
2023-01-10T11:43:46.900Z,101114.38
2023-01-10T11:46:21.263Z,101115.66
2023-01-10T11:49:05.482Z,101114.78
2023-01-10T11:51:40.173Z,101119.16
2023-01-10T11:54:11.843Z,101129.97
2023-01-10T11:56:43.664Z,101133.44
2023-01-10T11:59:17.001Z,101133.19
2023-01-10T12:01:44.995Z,101131.59
2023-01-10T12:04:21.313Z,101136.09
2023-01-10T12:06:54.163Z,101133.38
2023-01-10T12:09:40.412Z,101139.50
2023-01-10T12:12:30.954Z,101133.66
2023-01-10T12:14:59.203Z,101128.19
2023-01-10T12:17:27.691Z,101122.34
2023-01-10T12:19:58.567Z,101135.75
2023-01-10T12:22:31.027Z,101123.16
2023-01-10T12:25:00.182Z,101135.34
2023-01-10T12:27:29.139Z,101130.13
2023-01-10T12:30:01.692Z,101123.69
2023-01-10T12:32:34.060Z,101115.00
2023-01-10T12:35:10.667Z,101113.53
2023-01-10T12:38:02.575Z,101124.75
2023-01-10T12:40:40.753Z,101123.09
2023-01-10T12:43:37.747Z,101134.13
2023-01-10T12:46:56.647Z,101143.16
2023-01-10T12:49:14.697Z,101149.31
2023-01-10T12:51:42.957Z,101142.94
2023-01-10T12:54:15.005Z,101139.59
2023-01-10T12:56:42.979Z,101156.38
2023-01-10T12:59:32.593Z,101153.50
2023-01-10T13:02:10.567Z,101159.59
2023-01-10T13:04:41.660Z,101162.69
2023-01-10T13:07:11.215Z,101160.44
2023-01-10T13:09:41.903Z,101159.00
2023-01-10T13:12:18.352Z,101175.06
2023-01-10T13:14:59.067Z,101159.84
2023-01-10T13:17:33.403Z,101166.16
2023-01-10T13:20:26.436Z,101171.16
2023-01-10T13:22:58.625Z,101177.38
2023-01-10T13:25:26.053Z,101177.78
2023-01-10T13:28:17.076Z,101180.97
2023-01-10T13:30:51.514Z,101178.44
2023-01-10T13:33:22.125Z,101182.19
2023-01-10T13:35:51.010Z,101185.53
2023-01-10T13:38:18.275Z,101183.72
2023-01-10T13:41:00.087Z,101184.28
2023-01-10T13:43:37.017Z,101172.88
2023-01-10T13:46:16.656Z,101185.91
2023-01-10T13:48:46.913Z,101175.78
2023-01-10T13:51:16.431Z,101176.38
2023-01-10T13:53:45.889Z,101181.75
2023-01-10T13:56:29.988Z,101178.66
2023-01-10T13:59:17.267Z,101183.41
2023-01-10T14:02:10.842Z,101183.56
2023-01-10T14:04:44.903Z,101192.91
2023-01-10T14:07:18.284Z,101199.34
2023-01-10T14:09:46.433Z,101193.13
2023-01-10T14:12:20.011Z,101206.88
2023-01-10T14:14:53.252Z,101203.03
2023-01-10T14:17:37.749Z,101208.09
2023-01-10T14:20:16.647Z,101210.09
2023-01-10T14:23:01.962Z,101207.94
2023-01-10T14:25:30.633Z,101210.38
2023-01-10T14:27:59.125Z,101209.97
2023-01-10T14:30:37.885Z,101210.19
2023-01-10T14:33:22.304Z,101206.59
2023-01-10T14:35:56.730Z,101218.34
2023-01-10T14:38:30.173Z,101223.84
2023-01-10T14:41:03.513Z,101224.75
2023-01-10T14:43:38.841Z,101222.34
2023-01-10T14:46:29.016Z,101221.06
2023-01-10T14:49:01.190Z,101226.69
2023-01-10T14:51:31.170Z,101223.81
2023-01-10T14:54:02.818Z,101234.38
2023-01-10T14:56:41.234Z,101238.47
2023-01-10T14:59:18.329Z,101243.16
2023-01-10T15:01:51.755Z,101250.19
2023-01-10T15:04:20.976Z,101259.13
2023-01-10T15:07:00.310Z,101255.97
2023-01-10T15:09:29.178Z,101245.13
2023-01-10T15:12:00.631Z,101258.31
2023-01-10T15:14:42.484Z,101255.75
2023-01-10T15:17:20.121Z,101256.00
2023-01-10T15:19:49.818Z,101261.50
2023-01-10T15:22:26.422Z,101267.72
2023-01-10T15:25:20.082Z,101260.09
2023-01-10T15:27:56.681Z,101266.09
2023-01-10T15:30:31.591Z,101271.72
2023-01-10T15:33:05.203Z,101278.41
2023-01-10T15:35:37.288Z,101278.66
2023-01-10T15:38:07.446Z,101272.25
2023-01-10T15:40:37.836Z,101280.50
2023-01-10T15:43:17.344Z,101281.50
2023-01-10T15:45:52.901Z,101283.59
2023-01-10T15:48:26.740Z,101284.53
2023-01-10T15:51:03.752Z,101284.94
2023-01-10T15:53:49.985Z,101283.50
2023-01-10T15:56:21.730Z,101292.75
2023-01-10T15:58:49.665Z,101293.06
2023-01-10T16:01:17.903Z,101303.75
2023-01-10T16:03:56.950Z,101304.72
2023-01-10T16:06:34.104Z,101303.44
2023-01-10T16:09:04.122Z,101312.09
2023-01-10T16:12:05.149Z,101321.69
2023-01-10T16:14:41.248Z,101325.97
2023-01-10T16:17:10.272Z,101315.94
2023-01-10T16:19:37.863Z,101333.97
2023-01-10T16:22:05.433Z,101329.81
2023-01-10T16:24:34.904Z,101323.25
2023-01-10T16:27:05.793Z,101327.56
2023-01-10T16:29:34.504Z,101336.31
2023-01-10T16:32:02.055Z,101330.19
2023-01-10T16:34:30.889Z,101330.44
2023-01-10T16:36:58.816Z,101333.22
2023-01-10T16:39:26.249Z,101326.22
2023-01-10T16:42:12.600Z,101322.38
2023-01-10T16:44:43.704Z,101321.78
2023-01-10T16:47:11.563Z,101321.63
2023-01-10T16:49:41.728Z,101322.00
2023-01-10T16:52:12.319Z,101322.44
2023-01-10T16:54:40.928Z,101313.09
2023-01-10T16:57:09.100Z,101316.13
2023-01-10T16:59:37.389Z,101311.44
2023-01-10T17:02:14.572Z,101309.47
2023-01-10T17:04:45.671Z,101314.91
2023-01-10T17:07:13.109Z,101320.31
2023-01-10T17:09:40.724Z,101333.44
2023-01-10T17:12:14.316Z,101332.06
2023-01-10T17:14:42.585Z,101344.47
2023-01-10T17:17:10.914Z,101344.47
2023-01-10T17:19:39.694Z,101357.03
2023-01-10T17:22:07.106Z,101366.47
2023-01-10T17:24:35.093Z,101366.09
2023-01-10T17:27:03.099Z,101369.66
2023-01-10T17:29:31.512Z,101375.88
2023-01-10T17:31:59.779Z,101372.09
2023-01-10T17:34:27.468Z,101370.88
2023-01-10T17:36:55.034Z,101364.00
2023-01-10T17:39:41.134Z,101368.41
2023-01-10T17:42:27.447Z,101369.25
2023-01-10T17:45:13.249Z,101364.38
2023-01-10T17:47:41.475Z,101363.16
2023-01-10T17:50:09.093Z,101366.22
2023-01-10T17:52:37.140Z,101367.25
2023-01-10T17:55:06.620Z,101378.84
2023-01-10T17:57:38.414Z,101384.47
2023-01-10T18:00:06.995Z,101375.19
2023-01-10T18:02:36.965Z,101382.66
2023-01-10T18:05:05.206Z,101388.25
2023-01-10T18:07:33.289Z,101381.84
2023-01-10T18:10:01.980Z,101382.34
2023-01-10T18:12:30.689Z,101386.06
2023-01-10T18:15:01.234Z,101391.31
2023-01-10T18:17:29.004Z,101391.88
2023-01-10T18:19:57.119Z,101393.19
2023-01-10T18:22:43.322Z,101389.38
2023-01-10T18:25:11.364Z,101390.00
2023-01-10T18:27:39.637Z,101390.34
2023-01-10T18:30:07.500Z,101384.94
2023-01-10T18:32:35.290Z,101391.47
2023-01-10T18:35:03.618Z,101394.78
2023-01-10T18:37:31.235Z,101393.34
2023-01-10T18:39:58.774Z,101401.13
2023-01-10T18:42:26.535Z,101392.19
2023-01-10T18:44:54.436Z,101389.84
2023-01-10T18:47:24.470Z,101392.06
2023-01-10T18:49:52.007Z,101399.97
2023-01-10T18:52:21.253Z,101403.06
2023-01-10T18:54:51.926Z,101398.88
2023-01-10T18:57:20.836Z,101405.44
2023-01-10T18:59:51.105Z,101415.47
2023-01-10T19:02:21.837Z,101408.38
2023-01-10T19:04:52.350Z,101417.22
2023-01-10T19:07:23.059Z,101417.09
2023-01-10T19:09:50.818Z,101411.81
2023-01-10T19:12:18.279Z,101411.81
2023-01-10T19:14:45.721Z,101412.50
2023-01-10T19:17:13.227Z,101408.44
2023-01-10T19:19:41.158Z,101418.91
2023-01-10T19:22:08.942Z,101417.13
2023-01-10T19:24:37.963Z,101428.16
2023-01-10T19:27:06.143Z,101438.75
2023-01-10T19:29:34.948Z,101429.47
2023-01-10T19:32:04.191Z,101429.09
2023-01-10T19:34:32.145Z,101445.56
2023-01-10T19:36:59.504Z,101444.47
2023-01-10T19:39:27.951Z,101440.63
2023-01-10T19:41:55.406Z,101444.00
2023-01-10T19:44:22.769Z,101448.81
2023-01-10T19:46:50.813Z,101453.00
2023-01-10T19:49:19.638Z,101459.78
2023-01-10T19:51:49.352Z,101450.97
2023-01-10T19:54:17.508Z,101451.91
2023-01-10T19:56:45.359Z,101448.78
2023-01-10T19:59:17.689Z,101450.50
2023-01-10T20:01:45.133Z,101454.47
2023-01-10T20:04:13.866Z,101456.56
2023-01-10T20:06:42.039Z,101452.31
2023-01-10T20:09:11.461Z,101461.41
2023-01-10T20:11:40.621Z,101463.94
2023-01-10T20:14:10.380Z,101454.53
2023-01-10T20:16:38.007Z,101457.41
2023-01-10T20:19:09.161Z,101455.72
2023-01-10T20:21:37.296Z,101455.66
2023-01-10T20:24:08.567Z,101463.28
2023-01-10T20:26:36.832Z,101457.88
2023-01-10T20:29:06.946Z,101473.13
2023-01-10T20:31:35.104Z,101479.19
2023-01-10T20:34:02.555Z,101481.97
2023-01-10T20:36:32.440Z,101477.41
2023-01-10T20:39:00.259Z,101473.41
2023-01-10T20:41:29.048Z,101470.28
2023-01-10T20:43:57.013Z,101475.66
2023-01-10T20:46:29.103Z,101474.25
2023-01-10T20:48:56.920Z,101472.41
2023-01-10T20:51:27.195Z,101469.38
2023-01-10T20:53:56.025Z,101473.84
2023-01-10T20:56:24.892Z,101477.13
2023-01-10T20:58:52.578Z,101471.53
2023-01-10T21:01:33.643Z,101475.59
2023-01-10T21:04:03.141Z,101479.06
2023-01-10T21:06:31.177Z,101472.41
2023-01-10T21:08:58.882Z,101472.41
2023-01-10T21:11:27.023Z,101477.50
2023-01-10T21:13:55.053Z,101481.50
2023-01-10T21:16:22.828Z,101492.00
2023-01-10T21:18:50.964Z,101488.09
2023-01-10T21:21:24.600Z,101497.09
2023-01-10T21:23:53.959Z,101498.25
2023-01-10T21:26:21.454Z,101495.69
2023-01-10T21:28:48.866Z,101502.84
2023-01-10T21:31:20.353Z,101501.19
2023-01-10T21:33:49.127Z,101502.56
2023-01-10T21:36:17.776Z,101513.09
2023-01-10T21:38:45.284Z,101510.81
2023-01-10T21:41:15.225Z,101512.84
2023-01-10T21:43:46.220Z,101513.72
2023-01-10T21:46:14.027Z,101512.75
2023-01-10T21:48:41.793Z,101506.31
2023-01-10T21:51:09.657Z,101508.09
2023-01-10T21:53:41.330Z,101501.81
2023-01-10T21:56:09.315Z,101503.28
2023-01-10T21:58:37.071Z,101512.25
2023-01-10T22:01:06.171Z,101513.31
2023-01-10T22:03:36.718Z,101516.88
2023-01-10T22:06:04.742Z,101531.41
2023-01-10T22:08:35.113Z,101547.50
2023-01-10T22:11:02.989Z,101536.44
2023-01-10T22:13:30.462Z,101536.09
2023-01-10T22:16:03.441Z,101528.72
2023-01-10T22:18:31.374Z,101539.59
2023-01-10T22:20:59.572Z,101531.88
2023-01-10T22:23:28.049Z,101528.38
2023-01-10T22:26:04.036Z,101539.72
2023-01-10T22:28:32.320Z,101540.56
2023-01-10T22:31:00.194Z,101540.88
2023-01-10T22:33:28.847Z,101541.94
2023-01-10T22:35:56.363Z,101548.13
2023-01-10T22:38:23.826Z,101543.44
2023-01-10T22:40:51.934Z,101549.53
2023-01-10T22:43:19.328Z,101549.72
2023-01-10T22:45:50.255Z,101546.34
2023-01-10T22:48:18.872Z,101539.47
2023-01-10T22:50:49.488Z,101541.81
2023-01-10T22:53:16.917Z,101537.03
2023-01-10T22:55:44.508Z,101526.53
2023-01-10T22:58:14.680Z,101525.19
2023-01-10T23:00:51.436Z,101532.72
2023-01-10T23:03:20.593Z,101521.81
2023-01-10T23:05:48.064Z,101503.69
2023-01-10T23:08:15.746Z,101507.28
2023-01-10T23:11:24.776Z,101501.00
2023-01-10T23:13:55.670Z,101501.47
2023-01-10T23:16:28.952Z,101496.41
2023-01-10T23:18:57.580Z,101492.69
2023-01-10T23:21:26.007Z,101502.34
2023-01-10T23:23:56.826Z,101507.84
2023-01-10T23:26:24.812Z,101509.31
2023-01-10T23:28:52.449Z,101508.63
2023-01-10T23:31:22.122Z,101513.66
2023-01-10T23:33:50.552Z,101515.72
2023-01-10T23:36:18.482Z,101516.31
2023-01-10T23:38:46.493Z,101515.84
2023-01-10T23:41:14.583Z,101516.31
2023-01-10T23:43:42.815Z,101509.94
2023-01-10T23:46:10.629Z,101517.31
2023-01-10T23:48:39.042Z,101523.06
2023-01-10T23:51:11.500Z,101528.09
2023-01-10T23:53:40.676Z,101528.00
2023-01-10T23:56:09.680Z,101523.56
2023-01-10T23:58:37.877Z,101527.22
